createdAt,value
2022-07-26T00:01:10.392Z,24.10
2022-07-26T00:04:48.529Z,24.10
2022-07-26T00:07:22.684Z,24.10
2022-07-26T00:09:56.889Z,24.10
2022-07-26T00:12:31.561Z,24.06
2022-07-26T00:15:06.862Z,24.00
2022-07-26T00:17:40.950Z,24.00
2022-07-26T00:20:16.351Z,24.00
2022-07-26T00:22:50.469Z,24.00
2022-07-26T00:25:25.101Z,24.00
2022-07-26T00:27:59.175Z,24.00
2022-07-26T00:30:34.205Z,23.90
2022-07-26T00:33:08.494Z,23.90
2022-07-26T00:35:42.989Z,23.92
2022-07-26T00:38:17.562Z,23.90
2022-07-26T00:40:51.622Z,23.90
2022-07-26T00:43:25.896Z,23.90
2022-07-26T00:46:00.751Z,23.90
2022-07-26T00:48:34.951Z,23.90
2022-07-26T00:51:08.759Z,23.90
2022-07-26T00:53:43.138Z,23.90
2022-07-26T00:56:18.723Z,23.80
2022-07-26T00:58:52.933Z,23.80
2022-07-26T01:01:26.627Z,23.70
2022-07-26T01:04:00.119Z,23.70
2022-07-26T01:06:33.634Z,23.70
2022-07-26T01:09:07.476Z,23.66
2022-07-26T01:11:40.762Z,23.60
2022-07-26T01:14:14.047Z,23.60
2022-07-26T01:16:47.761Z,23.60
2022-07-26T01:19:21.846Z,23.60
2022-07-26T01:21:55.934Z,23.60
2022-07-26T01:24:29.222Z,23.58
2022-07-26T01:27:02.692Z,23.52
2022-07-26T01:29:37.546Z,23.50
2022-07-26T01:32:11.711Z,23.50
2022-07-26T01:34:53.606Z,23.50
2022-07-26T01:37:26.937Z,23.52
2022-07-26T01:40:00.333Z,23.60
2022-07-26T01:42:34.381Z,23.60
2022-07-26T01:45:09.759Z,23.60
2022-07-26T01:47:44.715Z,23.60
2022-07-26T01:50:19.067Z,23.60
2022-07-26T01:52:52.565Z,23.60
2022-07-26T01:55:26.063Z,23.60
2022-07-26T01:57:59.405Z,23.60
2022-07-26T02:00:33.276Z,23.60
2022-07-26T02:03:06.737Z,23.60
2022-07-26T02:05:40.409Z,23.58
2022-07-26T02:08:14.711Z,23.60
2022-07-26T02:11:04.492Z,23.60
2022-07-26T02:13:40.627Z,23.58
2022-07-26T02:16:18.335Z,23.50
2022-07-26T02:18:51.578Z,23.50
2022-07-26T02:21:24.835Z,23.40
2022-07-26T02:23:57.960Z,23.32
2022-07-26T02:26:31.453Z,23.30
2022-07-26T02:29:04.771Z,23.30
2022-07-26T02:31:38.051Z,23.30
2022-07-26T02:34:11.519Z,23.24
2022-07-26T02:36:44.894Z,23.30
2022-07-26T02:39:18.794Z,23.36
2022-07-26T02:41:52.322Z,23.30
2022-07-26T02:44:26.418Z,23.20
2022-07-26T02:46:59.776Z,23.10
2022-07-26T02:49:33.983Z,23.00
2022-07-26T02:52:08.922Z,22.90
2022-07-26T02:54:42.325Z,22.90
2022-07-26T02:57:16.165Z,22.80
2022-07-26T02:59:49.557Z,22.60
2022-07-26T03:02:24.562Z,22.40
2022-07-26T03:04:58.054Z,22.20
2022-07-26T03:07:31.468Z,21.86
2022-07-26T03:10:09.291Z,21.60
2022-07-26T03:12:43.088Z,21.50
2022-07-26T03:15:17.008Z,21.50
2022-07-26T03:17:50.594Z,21.44
2022-07-26T03:20:23.921Z,21.50
2022-07-26T03:22:57.196Z,21.60
2022-07-26T03:25:30.509Z,21.60
2022-07-26T03:28:04.134Z,21.54
2022-07-26T03:30:37.976Z,21.58
2022-07-26T03:33:11.216Z,21.50
2022-07-26T03:35:44.765Z,21.50
2022-07-26T03:38:18.190Z,21.50
2022-07-26T03:40:52.071Z,21.40
2022-07-26T03:43:25.575Z,21.40
2022-07-26T03:45:58.958Z,21.40
2022-07-26T03:48:33.193Z,21.40
2022-07-26T03:51:06.929Z,21.46
2022-07-26T03:53:40.286Z,21.40
2022-07-26T03:56:31.663Z,21.50
2022-07-26T03:59:09.055Z,21.50
2022-07-26T04:01:45.210Z,21.56
2022-07-26T04:04:25.414Z,21.60
2022-07-26T04:07:03.746Z,21.60
2022-07-26T04:09:37.647Z,21.70
2022-07-26T04:12:11.805Z,21.80
2022-07-26T04:14:45.464Z,21.80
2022-07-26T04:17:18.960Z,21.80
2022-07-26T04:19:52.384Z,21.82
2022-07-26T04:22:25.656Z,21.90
2022-07-26T04:24:59.058Z,21.90
2022-07-26T04:27:33.089Z,21.90
2022-07-26T04:30:14.014Z,21.90
2022-07-26T04:32:49.088Z,22.00
2022-07-26T04:35:26.009Z,22.10
2022-07-26T04:38:02.623Z,22.10
2022-07-26T04:40:40.574Z,22.18
2022-07-26T04:43:18.790Z,22.20
2022-07-26T04:45:52.880Z,22.30
2022-07-26T04:48:26.857Z,22.40
2022-07-26T04:51:03.144Z,22.40
2022-07-26T04:53:37.031Z,22.40
2022-07-26T04:56:11.037Z,22.36
2022-07-26T04:58:44.357Z,22.40
2022-07-26T05:01:17.730Z,22.40
2022-07-26T05:03:50.990Z,22.40
2022-07-26T05:06:24.280Z,22.50
2022-07-26T05:08:57.744Z,22.50
2022-07-26T05:11:31.013Z,22.60
2022-07-26T05:14:04.332Z,22.60
2022-07-26T05:16:43.931Z,22.70
2022-07-26T05:19:17.409Z,22.80
2022-07-26T05:21:51.609Z,22.90
2022-07-26T05:24:25.201Z,22.90
2022-07-26T05:26:58.703Z,23.00
2022-07-26T05:29:32.351Z,23.10
2022-07-26T05:32:09.683Z,23.12
2022-07-26T05:34:43.148Z,23.18
2022-07-26T05:37:16.464Z,23.20
2022-07-26T05:39:51.977Z,23.20
2022-07-26T05:42:25.906Z,23.18
2022-07-26T05:45:02.199Z,23.10
2022-07-26T05:47:36.765Z,23.10
2022-07-26T05:50:12.630Z,23.00
2022-07-26T05:52:45.924Z,23.00
2022-07-26T05:55:19.144Z,23.02
2022-07-26T05:57:53.034Z,23.06
2022-07-26T06:00:26.336Z,23.10
2022-07-26T06:02:59.629Z,23.10
2022-07-26T06:05:32.958Z,23.10
2022-07-26T06:08:06.625Z,23.10
2022-07-26T06:10:39.839Z,23.10
2022-07-26T06:13:13.164Z,23.10
2022-07-26T06:15:47.309Z,23.10
2022-07-26T06:18:21.132Z,23.00
2022-07-26T06:20:55.907Z,23.00
2022-07-26T06:23:35.868Z,23.00
2022-07-26T06:26:09.838Z,22.96
2022-07-26T06:28:44.208Z,22.90
2022-07-26T06:31:18.632Z,22.90
2022-07-26T06:33:52.503Z,22.90
2022-07-26T06:36:30.088Z,22.90
2022-07-26T06:39:04.310Z,22.90
2022-07-26T06:41:37.748Z,22.90
2022-07-26T06:44:11.752Z,22.90
2022-07-26T06:46:45.395Z,23.00
2022-07-26T06:49:22.849Z,23.10
2022-07-26T06:51:57.902Z,23.20
2022-07-26T06:54:31.374Z,23.20
2022-07-26T06:57:05.001Z,23.20
2022-07-26T06:59:38.703Z,23.20
2022-07-26T07:02:12.126Z,23.20
2022-07-26T07:04:45.552Z,23.16
2022-07-26T07:07:18.795Z,23.10
2022-07-26T07:09:52.254Z,23.20
2022-07-26T07:12:25.504Z,23.30
2022-07-26T07:14:58.731Z,23.40
2022-07-26T07:17:32.048Z,23.48
2022-07-26T07:20:06.203Z,23.50
2022-07-26T07:22:39.479Z,23.60
2022-07-26T07:25:14.728Z,23.60
2022-07-26T07:27:48.256Z,23.70
2022-07-26T07:30:21.655Z,23.86
2022-07-26T07:32:56.829Z,24.00
2022-07-26T07:35:31.856Z,24.20
2022-07-26T07:38:05.535Z,24.28
2022-07-26T07:40:39.457Z,24.30
2022-07-26T07:43:12.631Z,24.22
2022-07-26T07:45:48.222Z,24.30
2022-07-26T07:48:22.679Z,24.30
2022-07-26T07:50:55.911Z,24.40
2022-07-26T07:53:30.523Z,24.40
2022-07-26T07:56:05.115Z,24.50
2022-07-26T07:58:39.066Z,24.50
2022-07-26T08:01:13.317Z,24.60
2022-07-26T08:03:50.537Z,24.70
2022-07-26T08:06:24.230Z,24.80
2022-07-26T08:08:57.465Z,24.90
2022-07-26T08:11:30.675Z,24.90
2022-07-26T08:14:07.306Z,24.90
2022-07-26T08:53:16.673Z,26.30
2022-07-26T08:56:06.330Z,26.20
2022-07-26T09:02:00.061Z,25.90
2022-07-26T09:04:44.233Z,25.96
2022-07-26T09:07:20.610Z,26.00
2022-07-26T09:10:07.428Z,26.10
2022-07-26T09:12:43.611Z,26.10
2022-07-26T09:15:26.105Z,26.10
2022-07-26T09:18:00.765Z,26.02
2022-07-26T09:20:35.325Z,26.00
2022-07-26T09:23:11.741Z,26.10
2022-07-26T09:26:06.747Z,26.10
2022-07-26T09:28:45.013Z,26.10
2022-07-26T09:31:27.253Z,26.10
2022-07-26T09:34:00.911Z,26.20
2022-07-26T09:36:34.982Z,26.30
2022-07-26T09:39:08.655Z,26.38
2022-07-26T09:41:44.938Z,26.40
2022-07-26T09:44:29.150Z,26.40
2022-07-26T09:47:03.580Z,26.40
2022-07-26T09:49:40.396Z,26.42
2022-07-26T09:52:22.284Z,26.40
2022-07-26T09:54:55.495Z,26.40
2022-07-26T09:57:28.803Z,26.50
2022-07-26T10:00:02.745Z,26.70
2022-07-26T10:02:38.667Z,26.86
2022-07-26T10:05:12.660Z,26.90
2022-07-26T10:07:46.862Z,27.00
2022-07-26T10:10:27.937Z,27.00
2022-07-26T10:13:03.246Z,26.90
2022-07-26T10:15:43.501Z,26.90
2022-07-26T10:18:49.467Z,26.90
2022-07-26T10:21:31.917Z,27.00
2022-07-26T10:24:08.681Z,27.04
2022-07-26T10:26:45.775Z,27.10
2022-07-26T10:29:28.721Z,27.20
2022-07-26T10:32:22.766Z,27.30
2022-07-26T10:34:56.238Z,27.40
2022-07-26T10:37:30.495Z,27.40
2022-07-26T10:40:31.157Z,27.42
2022-07-26T10:46:29.715Z,27.46
2022-07-26T10:49:06.662Z,27.50
2022-07-26T10:51:42.053Z,27.50
2022-07-26T10:54:17.826Z,27.50
2022-07-26T10:56:51.193Z,27.60
2022-07-26T10:59:57.794Z,27.60
2022-07-26T11:02:32.634Z,27.70
2022-07-26T11:05:13.811Z,27.82
2022-07-26T11:08:05.444Z,27.90
2022-07-26T11:10:42.685Z,27.90
2022-07-26T11:13:23.773Z,27.80
2022-07-26T11:16:05.876Z,27.70
2022-07-26T11:18:41.951Z,27.80
2022-07-26T11:21:19.148Z,27.80
2022-07-26T11:23:52.886Z,27.80
2022-07-26T11:26:27.061Z,27.88
2022-07-26T11:29:06.517Z,28.00
2022-07-26T11:31:50.673Z,28.10
2022-07-26T11:34:36.455Z,28.08
2022-07-26T11:37:10.255Z,28.00
2022-07-26T11:39:43.688Z,28.00
2022-07-26T11:42:19.807Z,28.04
2022-07-26T11:44:54.229Z,28.10
2022-07-26T11:47:28.067Z,28.10
2022-07-26T11:50:17.017Z,28.10
2022-07-26T11:52:56.548Z,28.10
2022-07-26T11:55:33.971Z,28.20
2022-07-26T11:58:10.614Z,28.30
2022-07-26T12:00:44.002Z,28.40
2022-07-26T12:03:17.313Z,28.60
2022-07-26T12:06:07.629Z,28.70
2022-07-26T12:08:47.611Z,28.82
2022-07-26T12:11:37.627Z,28.80
2022-07-26T12:14:16.353Z,28.60
2022-07-26T12:16:51.613Z,28.50
2022-07-26T12:19:32.540Z,28.40
2022-07-26T12:22:15.307Z,28.30
2022-07-26T12:24:58.026Z,28.10
2022-07-26T12:27:33.592Z,28.00
2022-07-26T12:30:20.302Z,27.90
2022-07-26T12:32:55.411Z,27.90
2022-07-26T12:35:36.322Z,27.90
2022-07-26T12:38:09.535Z,27.90
2022-07-26T12:40:47.597Z,27.90
2022-07-26T12:43:21.120Z,27.94
2022-07-26T12:45:54.873Z,27.98
2022-07-26T12:48:28.585Z,28.00
2022-07-26T12:51:02.700Z,27.90
2022-07-26T12:53:40.763Z,27.80
2022-07-26T12:56:14.300Z,27.72
2022-07-26T12:58:47.615Z,27.60
2022-07-26T13:01:20.770Z,27.50
2022-07-26T13:03:54.210Z,27.40
2022-07-26T13:06:27.723Z,27.30
2022-07-26T13:09:01.103Z,27.30
2022-07-26T13:11:34.823Z,27.32
2022-07-26T13:14:08.345Z,27.44
2022-07-26T13:16:42.033Z,27.60
2022-07-26T13:19:15.453Z,27.70
2022-07-26T13:21:52.828Z,27.84
2022-07-26T13:24:27.699Z,28.00
2022-07-26T13:27:03.424Z,28.22
2022-07-26T13:29:39.412Z,28.50
2022-07-26T13:32:12.668Z,28.80
2022-07-26T13:34:45.932Z,28.70
2022-07-26T13:37:19.190Z,28.48
2022-07-26T13:39:52.406Z,28.20
2022-07-26T13:42:25.893Z,28.00
2022-07-26T13:44:59.240Z,27.84
2022-07-26T13:47:32.441Z,27.80
2022-07-26T13:50:06.660Z,27.88
2022-07-26T13:52:41.165Z,27.90
2022-07-26T13:55:14.477Z,27.80
2022-07-26T13:57:55.915Z,27.70
2022-07-26T14:00:32.516Z,27.60
2022-07-26T14:03:05.984Z,27.60
2022-07-26T14:05:39.361Z,27.50
2022-07-26T14:08:12.610Z,27.60
2022-07-26T14:10:46.747Z,27.72
2022-07-26T14:13:29.060Z,27.90
2022-07-26T14:16:02.445Z,28.06
2022-07-26T14:18:36.028Z,28.36
2022-07-26T14:21:10.854Z,30.38
2022-07-26T14:23:44.497Z,31.00
2022-07-26T14:26:46.933Z,31.20
2022-07-26T14:29:21.182Z,33.80
2022-07-26T14:32:03.085Z,36.14
2022-07-26T14:34:36.540Z,38.10
2022-07-26T14:37:41.697Z,39.24
2022-07-26T14:40:04.233Z,38.48
2022-07-26T14:42:37.871Z,38.18
2022-07-26T14:45:14.361Z,39.70
2022-07-26T14:47:47.860Z,40.86
2022-07-26T14:50:23.000Z,41.12
2022-07-26T14:52:57.610Z,40.18
2022-07-26T14:55:31.347Z,39.10
2022-07-26T14:58:05.259Z,37.98
2022-07-26T15:00:38.549Z,38.00
2022-07-26T15:03:12.649Z,39.32
2022-07-26T15:05:46.493Z,40.12
2022-07-26T15:08:19.756Z,40.10
2022-07-26T15:10:53.528Z,40.26
2022-07-26T15:13:26.815Z,41.12
2022-07-26T15:16:00.273Z,41.90
2022-07-26T15:18:33.617Z,42.64
2022-07-26T15:21:06.799Z,43.34
2022-07-26T15:23:40.517Z,43.80
2022-07-26T15:26:13.816Z,43.90
2022-07-26T15:28:47.247Z,43.52
2022-07-26T15:31:20.508Z,42.54
2022-07-26T15:33:53.828Z,41.08
2022-07-26T15:36:27.149Z,39.70
2022-07-26T15:39:15.643Z,38.88
2022-07-26T15:41:50.823Z,38.14
2022-07-26T15:44:25.831Z,37.50
2022-07-26T15:46:59.763Z,37.26
2022-07-26T15:49:34.197Z,36.98
2022-07-26T15:52:14.926Z,36.50
2022-07-26T15:54:48.590Z,36.12
2022-07-26T15:57:21.826Z,35.16
2022-07-26T15:59:55.100Z,34.50
2022-07-26T16:02:28.569Z,34.10
2022-07-26T16:05:01.960Z,34.10
2022-07-26T16:07:35.378Z,33.74
2022-07-26T16:10:10.797Z,33.24
2022-07-26T16:12:44.790Z,32.70
2022-07-26T16:15:18.061Z,32.20
2022-07-26T16:17:51.289Z,32.20
2022-07-26T16:20:27.753Z,32.30
2022-07-26T16:23:01.203Z,32.22
2022-07-26T16:25:34.707Z,32.18
2022-07-26T16:28:08.113Z,33.46
2022-07-26T16:30:42.914Z,34.10
2022-07-26T16:33:16.170Z,33.80
2022-07-26T16:35:49.404Z,33.24
2022-07-26T16:38:23.106Z,33.06
2022-07-26T16:40:58.503Z,33.60
2022-07-26T16:43:31.942Z,34.34
2022-07-26T16:46:05.412Z,34.90
2022-07-26T16:48:38.767Z,35.20
2022-07-26T16:51:13.604Z,35.30
2022-07-26T16:53:51.268Z,35.00
2022-07-26T16:56:24.598Z,34.50
2022-07-26T16:58:58.067Z,34.50
2022-07-26T17:01:31.627Z,34.50
2022-07-26T17:04:04.878Z,34.50
2022-07-26T17:06:38.382Z,34.22
2022-07-26T17:09:15.510Z,33.58
2022-07-26T17:11:49.054Z,33.18
2022-07-26T17:14:22.419Z,32.68
2022-07-26T17:16:57.883Z,32.02
2022-07-26T17:19:34.269Z,31.50
2022-07-26T17:22:08.244Z,30.98
2022-07-26T17:24:41.667Z,30.46
2022-07-26T17:27:15.130Z,29.98
2022-07-26T17:29:48.584Z,29.48
2022-07-26T17:32:21.807Z,29.02
2022-07-26T17:34:55.170Z,28.66
2022-07-26T17:37:29.375Z,28.30
2022-07-26T17:40:03.488Z,28.00
2022-07-26T17:42:37.431Z,27.80
2022-07-26T17:45:13.123Z,27.50
2022-07-26T17:47:47.004Z,27.30
2022-07-26T17:50:36.961Z,27.10
2022-07-26T17:53:10.669Z,26.90
2022-07-26T17:55:43.890Z,26.80
2022-07-26T17:58:17.095Z,26.68
2022-07-26T18:00:50.391Z,26.50
2022-07-26T18:03:23.712Z,26.40
2022-07-26T18:05:57.068Z,26.30
2022-07-26T18:08:30.568Z,26.20
2022-07-26T18:11:05.028Z,26.10
2022-07-26T18:13:38.695Z,26.00
2022-07-26T18:16:13.001Z,25.86
2022-07-26T18:18:46.204Z,25.80
2022-07-26T18:21:19.403Z,25.70
2022-07-26T18:24:14.719Z,25.60
2022-07-26T18:26:45.954Z,25.58
2022-07-26T18:29:19.268Z,25.50
2022-07-26T18:31:52.921Z,25.50
2022-07-26T18:34:26.166Z,25.40
2022-07-26T18:36:59.463Z,25.32
2022-07-26T18:39:33.292Z,25.30
2022-07-26T18:42:08.378Z,25.20
2022-07-26T18:44:42.947Z,25.10
2022-07-26T18:47:19.520Z,25.00
2022-07-26T18:49:56.054Z,24.90
2022-07-26T18:52:32.611Z,24.88
2022-07-26T18:55:12.322Z,24.74
2022-07-26T18:57:46.839Z,24.70
2022-07-26T19:00:25.152Z,24.60
2022-07-26T19:02:59.064Z,24.50
2022-07-26T19:05:35.400Z,24.40
2022-07-26T19:08:09.298Z,24.30
2022-07-26T19:10:42.777Z,24.20
2022-07-26T19:13:16.141Z,24.10
2022-07-26T19:15:49.708Z,24.08
2022-07-26T19:18:23.048Z,24.00
2022-07-26T19:20:56.352Z,23.82
2022-07-26T19:23:29.563Z,23.70
2022-07-26T19:26:02.920Z,23.60
2022-07-26T19:28:36.256Z,23.44
2022-07-26T19:31:09.500Z,23.30
2022-07-26T19:33:42.735Z,23.20
2022-07-26T19:36:25.243Z,23.02
2022-07-26T19:39:02.279Z,22.90
2022-07-26T19:41:35.542Z,22.80
2022-07-26T19:44:09.209Z,22.70
2022-07-26T19:46:43.394Z,22.60
2022-07-26T19:49:17.381Z,22.50
2022-07-26T19:51:50.591Z,22.40
2022-07-26T19:54:23.876Z,22.30
2022-07-26T19:56:57.353Z,22.28
2022-07-26T19:59:30.665Z,22.20
2022-07-26T20:02:05.713Z,22.10
2022-07-26T20:04:44.133Z,22.00
2022-07-26T20:07:20.260Z,21.90
2022-07-26T20:09:54.497Z,21.80
2022-07-26T20:12:27.720Z,21.70
2022-07-26T20:15:01.099Z,21.64
2022-07-26T20:17:37.980Z,21.58
2022-07-26T20:20:18.135Z,21.50
2022-07-26T20:22:51.706Z,21.40
2022-07-26T20:25:25.659Z,21.30
2022-07-26T20:27:58.908Z,21.32
2022-07-26T20:30:32.722Z,21.40
2022-07-26T20:33:06.204Z,21.30
2022-07-26T20:35:40.259Z,21.20
2022-07-26T20:38:14.121Z,21.12
2022-07-26T20:40:47.884Z,21.04
2022-07-26T20:43:22.769Z,21.00
2022-07-26T20:45:56.537Z,20.90
2022-07-26T20:48:30.609Z,20.80
2022-07-26T20:51:13.580Z,20.74
2022-07-26T20:53:47.559Z,20.70
2022-07-26T20:56:21.083Z,20.60
2022-07-26T20:59:34.543Z,20.60
2022-07-26T21:02:09.826Z,20.50
2022-07-26T21:04:46.244Z,20.42
2022-07-26T21:07:21.738Z,20.40
2022-07-26T21:09:56.226Z,20.30
2022-07-26T21:12:29.798Z,20.30
2022-07-26T21:15:03.455Z,20.30
2022-07-26T21:17:36.880Z,20.20
2022-07-26T21:20:15.474Z,20.20
2022-07-26T21:22:49.732Z,20.12
2022-07-26T21:25:33.276Z,20.10
2022-07-26T21:28:09.713Z,20.10
2022-07-26T21:30:43.521Z,20.02
2022-07-26T21:33:17.488Z,20.00
2022-07-26T21:35:50.893Z,19.90
2022-07-26T21:38:24.403Z,19.90
2022-07-26T21:40:57.723Z,19.80
2022-07-26T21:43:31.032Z,19.70
2022-07-26T21:46:08.971Z,19.70
2022-07-26T21:48:45.519Z,19.64
2022-07-26T22:44:18.769Z,20.46
2022-07-26T22:46:48.344Z,20.40
2022-07-26T22:49:18.909Z,20.30
2022-07-26T22:51:48.116Z,20.20
2022-07-26T22:54:17.246Z,20.04
2022-07-26T22:56:46.755Z,19.80
2022-07-26T22:59:16.841Z,19.60
2022-07-26T23:01:46.756Z,19.40
2022-07-26T23:04:16.323Z,19.30
2022-07-26T23:06:46.233Z,19.20
2022-07-26T23:09:16.171Z,19.10
2022-07-26T23:11:46.688Z,19.00
2022-07-26T23:14:15.905Z,18.90
2022-07-26T23:16:45.240Z,18.80
2022-07-26T23:19:15.077Z,18.70
2022-07-26T23:21:44.632Z,18.68
2022-07-26T23:24:13.877Z,18.60
2022-07-26T23:26:43.151Z,18.50
2022-07-26T23:29:12.879Z,18.50
2022-07-26T23:31:42.595Z,18.40
2022-07-26T23:34:12.100Z,18.40
2022-07-26T23:36:41.783Z,18.30
2022-07-26T23:39:11.847Z,18.32
2022-07-26T23:41:41.272Z,18.30
2022-07-26T23:44:10.457Z,18.20
2022-07-26T23:46:41.027Z,18.20
2022-07-26T23:49:10.717Z,18.10
2022-07-26T23:51:40.307Z,18.10
2022-07-26T23:54:09.744Z,18.10
2022-07-26T23:56:39.013Z,18.10
2022-07-26T23:59:08.892Z,18.04
